createdAt,value
2022-08-30T00:02:41.505Z,23.90
2022-08-30T00:05:30.703Z,23.90
2022-08-30T00:08:19.131Z,23.90
2022-08-30T00:11:09.854Z,23.90
2022-08-30T00:13:58.566Z,23.90
2022-08-30T00:16:47.160Z,23.90
2022-08-30T00:19:37.922Z,24.00
2022-08-30T00:22:26.307Z,23.80
2022-08-30T00:25:15.067Z,23.80
2022-08-30T00:28:04.235Z,23.80
2022-08-30T00:30:52.820Z,23.80
2022-08-30T00:33:41.518Z,23.80
2022-08-30T00:36:31.307Z,23.80
2022-08-30T00:39:19.801Z,23.80
2022-08-30T00:42:08.415Z,23.80
2022-08-30T00:45:12.570Z,23.70
2022-08-30T00:48:01.227Z,23.70
2022-08-30T00:50:52.249Z,23.70
2022-08-30T00:53:43.732Z,23.70
2022-08-30T00:56:32.504Z,23.70
2022-08-30T00:59:21.903Z,23.60
2022-08-30T01:02:10.390Z,23.60
2022-08-30T01:04:58.874Z,23.60
2022-08-30T01:07:47.349Z,23.60
2022-08-30T01:10:37.281Z,23.60
2022-08-30T01:13:26.558Z,23.60
2022-08-30T01:16:15.308Z,23.50
2022-08-30T01:19:04.093Z,23.50
2022-08-30T01:21:58.410Z,23.50
2022-08-30T01:24:48.330Z,23.50
2022-08-30T01:27:37.607Z,23.50
2022-08-30T01:30:26.548Z,23.50
2022-08-30T01:33:15.427Z,23.50
2022-08-30T01:36:06.444Z,23.50
2022-08-30T01:38:57.705Z,23.50
2022-08-30T01:41:47.632Z,23.50
2022-08-30T01:44:36.083Z,23.50
2022-08-30T01:47:24.662Z,23.50
2022-08-30T01:50:13.321Z,23.50
2022-08-30T01:53:01.934Z,23.50
2022-08-30T01:55:50.486Z,23.50
2022-08-30T01:58:40.518Z,23.50
2022-08-30T02:01:29.808Z,23.50
2022-08-30T02:04:20.879Z,23.50
2022-08-30T02:07:09.563Z,23.50
2022-08-30T02:09:58.013Z,23.50
2022-08-30T02:12:47.336Z,23.50
2022-08-30T02:15:41.399Z,23.40
2022-08-30T02:18:30.564Z,23.40
2022-08-30T02:21:19.449Z,23.30
2022-08-30T02:24:08.339Z,23.30
2022-08-30T02:26:56.837Z,23.20
2022-08-30T02:29:45.344Z,23.20
2022-08-30T02:32:35.136Z,23.20
2022-08-30T02:35:23.805Z,23.20
2022-08-30T02:38:12.237Z,23.10
2022-08-30T02:41:00.737Z,23.10
2022-08-30T02:43:49.256Z,23.10
2022-08-30T02:46:37.717Z,23.10
2022-08-30T02:49:33.605Z,23.10
2022-08-30T02:52:27.881Z,23.10
2022-08-30T02:55:16.509Z,23.00
2022-08-30T02:58:04.993Z,22.90
2022-08-30T03:00:53.592Z,22.90
2022-08-30T03:03:42.203Z,22.80
2022-08-30T03:06:32.124Z,22.80
2022-08-30T03:09:20.547Z,22.70
2022-08-30T03:12:09.185Z,22.70
2022-08-30T03:14:57.761Z,22.60
2022-08-30T03:17:46.219Z,22.30
2022-08-30T03:20:35.070Z,22.60
2022-08-30T03:23:24.953Z,22.40
2022-08-30T03:26:14.937Z,22.40
2022-08-30T03:29:03.614Z,22.40
2022-08-30T03:31:53.388Z,22.30
2022-08-30T03:34:42.283Z,22.30
2022-08-30T03:37:30.716Z,22.30
2022-08-30T03:40:21.853Z,22.30
2022-08-30T03:43:12.368Z,22.30
2022-08-30T03:46:01.321Z,22.30
2022-08-30T03:48:49.861Z,22.30
2022-08-30T03:51:38.932Z,22.30
2022-08-30T03:54:27.374Z,22.30
2022-08-30T03:57:19.676Z,22.30
2022-08-30T04:00:10.678Z,22.30
2022-08-30T04:03:02.021Z,22.30
2022-08-30T04:05:50.482Z,22.30
2022-08-30T04:08:39.201Z,22.20
2022-08-30T04:11:27.696Z,22.20
2022-08-30T04:14:17.618Z,22.30
2022-08-30T04:17:06.240Z,22.20
2022-08-30T04:19:54.662Z,22.20
2022-08-30T04:22:43.196Z,22.10
2022-08-30T04:25:31.671Z,22.10
2022-08-30T04:28:20.146Z,22.10
2022-08-30T04:31:15.981Z,22.10
2022-08-30T04:34:04.568Z,22.00
2022-08-30T04:36:53.071Z,21.90
2022-08-30T04:39:42.600Z,21.80
2022-08-30T04:42:33.482Z,21.70
2022-08-30T04:45:22.617Z,21.50
2022-08-30T04:48:12.576Z,21.30
2022-08-30T04:51:01.083Z,21.20
2022-08-30T04:53:49.549Z,21.10
2022-08-30T04:56:38.045Z,21.00
2022-08-30T04:59:26.776Z,21.00
2022-08-30T05:02:15.337Z,20.90
2022-08-30T05:05:23.254Z,20.80
2022-08-30T05:08:24.726Z,20.60
2022-08-30T05:11:13.477Z,20.50
2022-08-30T05:14:01.919Z,20.40
2022-08-30T05:16:50.412Z,20.40
2022-08-30T05:19:38.889Z,20.30
2022-08-30T05:22:28.703Z,20.30
2022-08-30T05:25:18.595Z,20.30
2022-08-30T05:28:07.048Z,20.30
2022-08-30T05:30:55.566Z,20.40
2022-08-30T05:33:44.263Z,20.40
2022-08-30T05:36:34.597Z,20.20
2022-08-30T05:39:24.423Z,20.40
2022-08-30T05:42:12.942Z,20.50
2022-08-30T05:45:06.545Z,20.50
2022-08-30T05:47:55.481Z,20.60
2022-08-30T05:50:43.973Z,20.60
2022-08-30T05:53:32.428Z,20.80
2022-08-30T05:56:24.918Z,21.00
2022-08-30T05:59:14.714Z,21.40
2022-08-30T06:02:03.775Z,21.80
2022-08-30T06:04:52.376Z,22.30
2022-08-30T06:07:41.005Z,22.70
2022-08-30T06:10:29.452Z,23.20
2022-08-30T06:13:19.328Z,23.60
2022-08-30T06:16:08.096Z,24.00
2022-08-30T06:18:57.656Z,24.30
2022-08-30T06:21:48.890Z,24.50
2022-08-30T06:24:56.514Z,24.60
2022-08-30T06:27:45.826Z,24.80
2022-08-30T06:30:35.674Z,25.00
2022-08-30T06:33:24.119Z,25.20
2022-08-30T06:36:14.406Z,25.40
2022-08-30T06:39:02.886Z,25.70
2022-08-30T06:41:51.408Z,25.80
2022-08-30T06:44:48.517Z,25.90
2022-08-30T06:47:38.387Z,26.00
2022-08-30T06:50:26.908Z,26.10
2022-08-30T06:53:15.695Z,26.10
2022-08-30T06:56:07.281Z,26.10
2022-08-30T06:58:55.715Z,26.10
2022-08-30T07:01:44.288Z,26.10
2022-08-30T07:04:34.562Z,26.10
2022-08-30T07:07:23.127Z,26.10
2022-08-30T07:10:12.214Z,26.20
2022-08-30T07:13:00.692Z,26.20
2022-08-30T07:15:49.346Z,26.30
2022-08-30T07:18:54.881Z,26.50
2022-08-30T07:21:44.931Z,26.50
2022-08-30T07:24:33.450Z,26.50
2022-08-30T07:27:21.933Z,26.50
2022-08-30T07:30:11.708Z,26.50
2022-08-30T07:33:00.167Z,26.50
2022-08-30T07:35:48.671Z,26.50
2022-08-30T07:38:38.566Z,26.40
2022-08-30T07:41:29.180Z,26.40
2022-08-30T07:44:17.957Z,26.40
2022-08-30T07:47:06.805Z,26.40
2022-08-30T07:49:55.276Z,26.50
2022-08-30T07:52:44.304Z,26.50
2022-08-30T07:55:34.162Z,26.60
2022-08-30T07:58:23.176Z,26.40
2022-08-30T08:01:13.071Z,26.30
2022-08-30T08:04:01.536Z,26.20
2022-08-30T08:06:50.180Z,26.20
2022-08-30T08:09:38.887Z,26.20
2022-08-30T08:12:29.673Z,26.10
2022-08-30T08:15:18.267Z,26.20
2022-08-30T08:18:07.148Z,26.20
2022-08-30T08:20:56.811Z,26.30
2022-08-30T08:23:45.662Z,26.40
2022-08-30T08:26:36.047Z,26.60
2022-08-30T08:29:27.055Z,26.70
2022-08-30T08:32:15.695Z,26.90
2022-08-30T08:35:04.403Z,27.00
2022-08-30T08:37:53.398Z,27.10
2022-08-30T08:40:49.325Z,27.10
2022-08-30T08:43:38.847Z,27.10
2022-08-30T08:46:32.359Z,27.20
2022-08-30T08:49:21.677Z,27.30
2022-08-30T08:52:33.152Z,27.40
2022-08-30T08:55:22.212Z,27.50
2022-08-30T08:58:22.442Z,27.60
2022-08-30T09:01:11.984Z,27.70
2022-08-30T09:04:05.157Z,27.80
2022-08-30T09:06:56.614Z,28.00
2022-08-30T09:09:45.157Z,28.10
2022-08-30T09:12:33.896Z,28.30
2022-08-30T09:15:25.417Z,28.50
2022-08-30T09:18:19.776Z,28.70
2022-08-30T09:21:10.055Z,28.90
2022-08-30T09:24:00.719Z,29.20
2022-08-30T09:26:49.464Z,29.40
2022-08-30T09:29:38.144Z,29.60
2022-08-30T09:32:30.065Z,29.80
2022-08-30T09:35:23.551Z,30.10
2022-08-30T09:38:19.231Z,30.30
2022-08-30T09:41:37.783Z,30.50
2022-08-30T09:44:30.561Z,30.80
2022-08-30T09:47:25.868Z,31.00
2022-08-30T09:50:15.564Z,31.30
2022-08-30T09:53:10.426Z,31.40
2022-08-30T09:56:07.085Z,31.50
2022-08-30T09:59:03.812Z,31.70
2022-08-30T10:01:54.304Z,31.80
2022-08-30T10:04:47.446Z,31.90
2022-08-30T10:07:44.227Z,32.10
2022-08-30T10:10:37.008Z,32.20
2022-08-30T10:13:51.519Z,32.30
2022-08-30T10:16:46.896Z,32.50
2022-08-30T10:19:49.661Z,32.70
2022-08-30T10:22:40.273Z,32.90
2022-08-30T10:25:33.320Z,33.20
2022-08-30T10:28:30.046Z,33.40
2022-08-30T10:31:38.461Z,33.50
2022-08-30T10:34:30.469Z,33.60
2022-08-30T10:37:21.865Z,33.70
2022-08-30T10:40:32.456Z,33.90
2022-08-30T10:43:25.506Z,34.10
2022-08-30T10:46:19.627Z,34.20
2022-08-30T10:49:13.336Z,34.30
2022-08-30T10:52:16.011Z,34.40
2022-08-30T10:55:11.334Z,34.50
2022-08-30T10:58:00.948Z,34.70
2022-08-30T11:01:01.400Z,34.80
2022-08-30T11:04:30.295Z,34.90
2022-08-30T11:07:28.397Z,35.00
2022-08-30T11:10:28.281Z,35.10
2022-08-30T11:13:18.072Z,35.20
2022-08-30T11:16:09.114Z,35.20
2022-08-30T11:18:58.064Z,35.20
2022-08-30T11:21:47.936Z,35.10
2022-08-30T11:25:11.085Z,35.00
2022-08-30T11:27:59.483Z,34.90
2022-08-30T11:30:52.761Z,34.90
2022-08-30T11:33:46.573Z,35.00
2022-08-30T11:37:10.274Z,35.10
2022-08-30T11:40:03.898Z,35.20
2022-08-30T11:42:53.597Z,35.20
2022-08-30T11:45:52.363Z,35.20
2022-08-30T11:48:55.278Z,35.30
2022-08-30T11:55:45.189Z,35.40
2022-08-30T11:58:47.977Z,35.60
2022-08-30T12:01:50.273Z,35.70
2022-08-30T12:04:45.959Z,35.80
2022-08-30T12:07:57.318Z,35.90
2022-08-30T12:10:48.417Z,35.90
2022-08-30T12:13:53.196Z,35.90
2022-08-30T12:17:11.584Z,35.80
2022-08-30T12:20:04.290Z,35.70
2022-08-30T12:22:53.891Z,35.70
2022-08-30T12:25:42.652Z,35.60
2022-08-30T12:28:33.347Z,35.60
2022-08-30T12:31:24.469Z,35.60
2022-08-30T12:34:20.813Z,35.60
2022-08-30T12:37:13.063Z,35.60
2022-08-30T12:40:03.767Z,35.60
2022-08-30T12:42:56.931Z,35.60
2022-08-30T12:45:50.994Z,35.60
2022-08-30T12:48:40.698Z,35.60
2022-08-30T12:51:38.259Z,35.50
2022-08-30T12:54:30.618Z,35.40
2022-08-30T12:57:38.266Z,35.40
2022-08-30T13:00:28.431Z,35.20
2022-08-30T13:03:31.811Z,35.10
2022-08-30T13:06:43.869Z,34.90
2022-08-30T13:09:35.030Z,34.80
2022-08-30T13:12:25.408Z,34.50
2022-08-30T13:15:18.404Z,34.40
2022-08-30T13:18:22.257Z,34.30
2022-08-30T13:21:30.755Z,34.20
2022-08-30T13:24:22.396Z,34.20
2022-08-30T13:27:13.705Z,34.20
2022-08-30T13:30:13.379Z,34.30
2022-08-30T13:33:03.040Z,34.50
2022-08-30T13:35:51.522Z,34.60
2022-08-30T13:38:41.500Z,34.70
2022-08-30T13:41:33.847Z,34.80
2022-08-30T13:44:22.821Z,34.90
2022-08-30T13:50:20.871Z,34.80
2022-08-30T13:53:10.070Z,34.70
2022-08-30T13:55:59.937Z,34.70
2022-08-30T13:58:48.845Z,34.70
2022-08-30T14:02:07.632Z,34.70
2022-08-30T14:04:45.770Z,34.70
2022-08-30T14:07:34.274Z,34.60
2022-08-30T14:10:32.247Z,34.60
2022-08-30T14:13:22.637Z,34.60
2022-08-30T14:16:28.438Z,34.70
2022-08-30T14:19:17.204Z,34.70
2022-08-30T14:22:06.166Z,34.70
2022-08-30T14:24:55.397Z,34.70
2022-08-30T14:27:44.037Z,34.80
2022-08-30T14:30:33.887Z,34.80
2022-08-30T14:33:22.470Z,34.70
2022-08-30T14:36:15.873Z,34.70
2022-08-30T14:39:08.714Z,34.70
2022-08-30T14:41:57.717Z,34.60
2022-08-30T14:44:56.656Z,34.60
2022-08-30T14:47:46.818Z,34.60
2022-08-30T14:50:35.855Z,34.70
2022-08-30T14:53:24.287Z,34.70
2022-08-30T14:56:14.887Z,34.70
2022-08-30T14:59:03.448Z,34.70
2022-08-30T15:01:51.903Z,34.70
2022-08-30T15:04:41.642Z,34.80
2022-08-30T15:07:30.096Z,34.80
2022-08-30T15:10:20.644Z,34.90
2022-08-30T15:13:09.105Z,34.90
2022-08-30T15:15:57.716Z,35.00
2022-08-30T15:18:46.243Z,35.00
2022-08-30T15:21:37.136Z,35.10
2022-08-30T15:24:29.905Z,35.10
2022-08-30T15:27:18.580Z,35.10
2022-08-30T15:30:08.776Z,35.10
2022-08-30T15:32:59.562Z,35.10
2022-08-30T15:35:52.065Z,35.10
2022-08-30T15:38:42.304Z,35.20
2022-08-30T15:41:31.119Z,35.10
2022-08-30T15:44:19.602Z,35.10
2022-08-30T15:47:08.193Z,35.00
2022-08-30T15:49:57.252Z,34.90
2022-08-30T15:52:46.579Z,34.90
2022-08-30T15:55:36.376Z,34.70
2022-08-30T15:58:24.888Z,34.60
2022-08-30T16:01:13.738Z,34.60
2022-08-30T16:04:02.441Z,34.50
2022-08-30T16:06:51.017Z,34.40
2022-08-30T16:09:41.301Z,34.30
2022-08-30T16:12:31.462Z,34.30
2022-08-30T16:15:20.094Z,34.30
2022-08-30T16:18:09.125Z,34.20
2022-08-30T16:21:05.738Z,34.20
2022-08-30T16:23:55.869Z,34.10
2022-08-30T16:26:44.549Z,34.10
2022-08-30T16:29:34.432Z,34.00
2022-08-30T16:32:23.037Z,33.90
2022-08-30T16:35:12.557Z,33.90
2022-08-30T16:38:01.077Z,33.80
2022-08-30T16:40:49.580Z,33.70
2022-08-30T16:43:38.902Z,33.70
2022-08-30T16:46:28.918Z,33.70
2022-08-30T16:49:17.399Z,33.70
2022-08-30T16:52:05.912Z,33.60
2022-08-30T16:54:54.434Z,33.60
2022-08-30T16:57:42.918Z,33.60
2022-08-30T17:00:32.373Z,33.60
2022-08-30T17:03:22.216Z,33.50
2022-08-30T17:06:10.766Z,33.50
2022-08-30T17:08:59.273Z,33.40
2022-08-30T17:11:47.988Z,33.40
2022-08-30T17:14:36.490Z,33.30
2022-08-30T17:17:25.619Z,33.20
2022-08-30T17:20:15.724Z,33.20
2022-08-30T17:23:04.316Z,33.10
2022-08-30T17:25:52.821Z,33.00
2022-08-30T17:28:41.556Z,32.90
2022-08-30T17:31:31.045Z,32.90
2022-08-30T17:34:21.141Z,32.70
2022-08-30T17:37:11.852Z,32.60
2022-08-30T17:40:00.610Z,32.50
2022-08-30T17:42:59.351Z,32.40
2022-08-30T17:45:47.853Z,32.30
2022-08-30T17:48:36.409Z,32.10
2022-08-30T17:51:25.923Z,32.00
2022-08-30T17:54:15.677Z,31.80
2022-08-30T17:57:10.800Z,31.60
2022-08-30T17:59:59.937Z,31.40
2022-08-30T18:02:48.700Z,31.20
2022-08-30T18:05:38.463Z,31.00
2022-08-30T18:08:30.128Z,30.80
2022-08-30T18:11:19.951Z,30.60
2022-08-30T18:14:10.807Z,30.40
2022-08-30T18:16:59.873Z,30.20
2022-08-30T18:19:49.082Z,30.00
2022-08-30T18:22:37.980Z,29.80
2022-08-30T18:25:26.405Z,29.60
2022-08-30T18:28:16.641Z,29.40
2022-08-30T18:31:05.688Z,29.30
2022-08-30T18:34:00.232Z,29.10
2022-08-30T18:36:48.694Z,29.00
2022-08-30T18:39:37.195Z,28.80
2022-08-30T18:42:26.564Z,28.70
2022-08-30T18:45:16.580Z,28.60
2022-08-30T18:48:06.936Z,28.40
2022-08-30T18:50:56.477Z,28.30
2022-08-30T18:53:45.064Z,28.10
2022-08-30T18:56:33.525Z,28.00
2022-08-30T18:59:21.986Z,27.90
2022-08-30T19:02:14.583Z,27.80
2022-08-30T19:05:03.117Z,27.70
2022-08-30T19:07:51.811Z,27.70
2022-08-30T19:10:43.653Z,27.60
2022-08-30T19:13:32.528Z,27.60
2022-08-30T19:16:21.393Z,27.60
2022-08-30T19:19:12.974Z,27.50
2022-08-30T19:22:01.407Z,27.50
2022-08-30T19:24:50.688Z,27.50
2022-08-30T19:27:40.189Z,27.50
2022-08-30T19:30:30.279Z,27.50
2022-08-30T19:33:19.728Z,27.50
2022-08-30T19:36:10.553Z,27.50
2022-08-30T19:38:58.963Z,27.50
2022-08-30T19:41:47.921Z,27.50
2022-08-30T19:44:36.644Z,27.50
2022-08-30T19:47:25.097Z,27.60
2022-08-30T19:50:13.677Z,27.60
2022-08-30T19:53:03.526Z,27.60
2022-08-30T19:55:52.891Z,27.60
2022-08-30T19:58:42.391Z,27.60
2022-08-30T20:01:32.820Z,27.70
2022-08-30T20:04:22.481Z,27.70
2022-08-30T20:07:11.363Z,27.70
2022-08-30T20:10:03.336Z,27.70
2022-08-30T20:12:51.921Z,27.70
2022-08-30T20:15:40.431Z,27.60
2022-08-30T20:18:29.496Z,27.60
2022-08-30T20:21:17.994Z,27.60
2022-08-30T20:24:09.565Z,27.70
2022-08-30T20:26:59.672Z,27.60
2022-08-30T20:29:48.108Z,27.70
2022-08-30T20:32:37.162Z,27.60
2022-08-30T20:35:25.669Z,27.60
2022-08-30T20:38:20.572Z,27.60
2022-08-30T20:41:11.136Z,27.60
2022-08-30T20:44:01.814Z,27.60
2022-08-30T20:46:50.697Z,27.60
2022-08-30T20:49:39.168Z,27.50
2022-08-30T20:52:27.601Z,27.50
2022-08-30T20:55:17.281Z,27.50
2022-08-30T20:58:05.703Z,27.40
2022-08-30T21:00:55.835Z,27.40
2022-08-30T21:03:44.635Z,27.40
2022-08-30T21:06:37.153Z,27.40
2022-08-30T21:09:25.567Z,27.40
2022-08-30T21:12:13.984Z,27.30
2022-08-30T21:15:20.763Z,27.30
2022-08-30T21:18:12.714Z,27.30
2022-08-30T21:21:01.583Z,27.30
2022-08-30T21:23:50.376Z,27.30
2022-08-30T21:26:39.076Z,27.30
2022-08-30T21:29:29.019Z,27.30
2022-08-30T21:32:17.433Z,27.20
2022-08-30T21:35:26.753Z,27.20
2022-08-30T21:38:15.476Z,27.20
2022-08-30T21:41:03.889Z,27.20
2022-08-30T21:43:55.870Z,27.10
2022-08-30T21:46:44.461Z,27.10
2022-08-30T21:49:33.256Z,27.10
2022-08-30T21:52:23.677Z,27.10
2022-08-30T21:55:12.900Z,27.00
2022-08-30T21:58:01.289Z,27.10
2022-08-30T22:00:54.394Z,27.00
2022-08-30T22:03:43.531Z,27.00
2022-08-30T22:06:33.371Z,27.00
2022-08-30T22:09:24.879Z,26.90
2022-08-30T22:12:13.286Z,26.90
2022-08-30T22:15:02.649Z,26.90
2022-08-30T22:17:51.105Z,26.80
2022-08-30T22:20:39.567Z,26.80
2022-08-30T22:23:28.459Z,26.70
2022-08-30T22:26:19.176Z,26.70
2022-08-30T22:29:08.044Z,26.70
2022-08-30T22:31:56.483Z,26.70
2022-08-30T22:34:46.014Z,26.70
2022-08-30T22:37:34.405Z,26.60
2022-08-30T22:40:23.182Z,26.50
2022-08-30T22:43:13.095Z,26.50
2022-08-30T22:46:01.755Z,26.50
2022-08-30T22:48:50.622Z,26.50
2022-08-30T22:51:40.170Z,26.40
2022-08-30T22:54:28.596Z,26.40
2022-08-30T22:57:19.378Z,26.40
2022-08-30T23:00:15.019Z,26.40
2022-08-30T23:03:04.021Z,26.30
2022-08-30T23:05:52.463Z,26.30
2022-08-30T23:08:40.920Z,26.30
2022-08-30T23:11:30.614Z,26.30
2022-08-30T23:14:21.784Z,26.30
2022-08-30T23:17:11.532Z,26.30
2022-08-30T23:19:59.976Z,26.30
2022-08-30T23:22:48.230Z,26.20
2022-08-30T23:25:54.166Z,26.20
2022-08-30T23:29:00.155Z,26.20
2022-08-30T23:32:06.147Z,26.20
2022-08-30T23:35:13.290Z,26.10
2022-08-30T23:38:21.101Z,26.10
2022-08-30T23:41:30.256Z,26.10
2022-08-30T23:44:39.972Z,26.10
2022-08-30T23:47:46.006Z,26.10
2022-08-30T23:50:53.151Z,26.10
2022-08-30T23:53:58.987Z,26.00
2022-08-30T23:57:05.050Z,26.00
